createdAt,value
2019-01-30T00:01:33.582Z,1.50
2019-01-30T00:04:14.209Z,1.40
2019-01-30T00:07:07.788Z,1.40
2019-01-30T00:10:17.137Z,1.50
2019-01-30T00:13:19.463Z,1.50
2019-01-30T00:16:12.780Z,1.50
2019-01-30T00:19:08.969Z,1.40
2019-01-30T00:22:07.053Z,1.50
2019-01-30T00:25:14.473Z,1.50
2019-01-30T00:28:24.777Z,1.40
2019-01-30T00:31:02.447Z,1.40
2019-01-30T00:34:05.657Z,1.40
2019-01-30T00:36:55.647Z,1.40
2019-01-30T00:39:50.072Z,1.40
2019-01-30T00:46:07.637Z,1.40
2019-01-30T00:49:14.974Z,1.40
2019-01-30T00:56:07.272Z,1.40
2019-01-30T01:02:16.337Z,1.30
2019-01-30T01:05:14.666Z,1.40
2019-01-30T01:07:57.823Z,1.30
2019-01-30T01:10:49.948Z,1.30
2019-01-30T01:14:00.237Z,1.30
2019-01-30T01:16:37.641Z,1.30
2019-01-30T01:19:41.775Z,1.20
2019-01-30T01:22:37.704Z,1.20
2019-01-30T01:28:52.661Z,1.20
2019-01-30T01:31:30.843Z,1.20
2019-01-30T01:34:07.625Z,1.20
2019-01-30T01:36:48.644Z,1.10
2019-01-30T01:39:46.726Z,1.10
2019-01-30T01:42:50.808Z,1.10
2019-01-30T01:45:41.139Z,1.10
2019-01-30T01:48:18.178Z,1.00
2019-01-30T01:51:23.527Z,1.00
2019-01-30T01:57:30.484Z,1.00
2019-01-30T02:00:14.965Z,1.00
2019-01-30T02:02:57.522Z,1.00
2019-01-30T02:05:55.249Z,0.90
2019-01-30T02:08:55.507Z,0.90
2019-01-30T02:11:37.461Z,0.80
2019-01-30T02:14:33.959Z,0.80
2019-01-30T02:17:16.982Z,0.70
2019-01-30T02:20:15.706Z,0.70
2019-01-30T02:23:21.255Z,0.70
2019-01-30T02:26:22.561Z,0.70
2019-01-30T02:29:34.234Z,0.70
2019-01-30T02:35:36.788Z,0.60
2019-01-30T02:38:37.029Z,0.60
2019-01-30T02:41:32.463Z,0.70
2019-01-30T02:44:08.970Z,0.70
2019-01-30T02:47:09.413Z,0.70
2019-01-30T02:53:17.344Z,0.70
2019-01-30T02:56:05.467Z,0.70
2019-01-30T02:59:06.151Z,0.70
2019-01-30T03:01:54.185Z,0.70
2019-01-30T03:04:27.820Z,0.70
2019-01-30T03:07:03.779Z,0.70
2019-01-30T03:09:50.480Z,0.70
2019-01-30T03:12:29.597Z,0.70
2019-01-30T03:15:22.352Z,0.60
2019-01-30T03:18:20.914Z,0.60
2019-01-30T03:21:05.177Z,0.60
2019-01-30T03:23:54.778Z,0.60
2019-01-30T03:26:41.708Z,0.50
2019-01-30T03:29:25.394Z,0.50
2019-01-30T03:31:59.375Z,0.60
2019-01-30T03:34:38.554Z,0.50
2019-01-30T03:37:13.672Z,0.50
2019-01-30T03:40:29.382Z,0.60
2019-01-30T03:43:08.673Z,0.60
2019-01-30T03:45:39.911Z,0.50
2019-01-30T03:48:29.195Z,0.60
2019-01-30T03:51:06.682Z,0.60
2019-01-30T03:53:56.609Z,0.60
2019-01-30T03:56:36.768Z,0.60
2019-01-30T03:59:18.718Z,0.60
2019-01-30T04:02:03.509Z,0.60
2019-01-30T04:04:35.937Z,0.60
2019-01-30T04:07:11.243Z,0.60
2019-01-30T04:09:49.887Z,0.70
2019-01-30T04:12:51.359Z,0.70
2019-01-30T04:15:52.291Z,0.70
2019-01-30T04:18:27.933Z,0.70
2019-01-30T04:21:05.888Z,0.70
2019-01-30T04:23:46.884Z,0.70
2019-01-30T04:26:30.347Z,0.70
2019-01-30T04:29:06.014Z,0.70
2019-01-30T04:31:49.227Z,0.80
2019-01-30T04:34:21.742Z,0.80
2019-01-30T04:37:06.824Z,0.80
2019-01-30T04:39:40.283Z,0.80
2019-01-30T04:42:32.796Z,0.80
2019-01-30T04:45:10.086Z,0.80
2019-01-30T04:47:45.057Z,0.80
2019-01-30T04:50:27.783Z,0.80
2019-01-30T04:53:10.508Z,0.80
2019-01-30T04:55:55.010Z,0.80
2019-01-30T04:58:34.802Z,0.80
2019-01-30T05:01:11.604Z,0.80
2019-01-30T05:03:54.643Z,0.80
2019-01-30T05:06:34.557Z,0.80
2019-01-30T05:09:31.982Z,0.80
2019-01-30T05:15:53.211Z,0.80
2019-01-30T05:18:59.069Z,0.80
2019-01-30T05:22:24.502Z,0.80
2019-01-30T05:25:22.070Z,0.80
2019-01-30T05:28:46.023Z,0.80
2019-01-30T05:31:28.711Z,0.80
2019-01-30T05:34:14.702Z,0.80
2019-01-30T05:37:08.587Z,0.70
2019-01-30T05:40:06.447Z,0.80
2019-01-30T05:43:11.459Z,0.80
2019-01-30T05:45:52.862Z,0.80
2019-01-30T05:48:59.290Z,0.70
2019-01-30T05:51:37.268Z,0.70
2019-01-30T05:54:23.372Z,0.80
2019-01-30T05:57:49.275Z,0.80
2019-01-30T06:00:53.484Z,0.50
2019-01-30T06:03:43.018Z,0.70
2019-01-30T06:06:35.829Z,0.80
2019-01-30T06:09:21.327Z,0.80
2019-01-30T06:12:41.818Z,1.10
2019-01-30T06:15:57.510Z,0.70
2019-01-30T06:20:11.239Z,0.80
2019-01-30T06:23:24.456Z,0.70
2019-01-30T06:26:53.399Z,0.70
2019-01-30T06:37:21.583Z,0.70
2019-01-30T06:40:08.771Z,0.70
2019-01-30T06:46:10.379Z,0.70
2019-01-30T06:49:10.657Z,0.60
2019-01-30T06:52:37.792Z,0.60
2019-01-30T06:56:05.876Z,0.80
2019-01-30T06:59:14.264Z,0.60
2019-01-30T07:05:28.346Z,0.60
2019-01-30T07:08:33.103Z,0.60
2019-01-30T07:11:50.960Z,0.60
2019-01-30T07:15:02.170Z,0.60
2019-01-30T07:18:02.862Z,0.50
2019-01-30T07:20:50.102Z,0.90
2019-01-30T07:27:40.824Z,0.50
2019-01-30T07:30:56.042Z,0.40
2019-01-30T07:37:59.970Z,0.50
2019-01-30T07:41:21.523Z,0.50
2019-01-30T07:44:18.263Z,0.50
2019-01-30T07:47:24.678Z,0.50
2019-01-30T07:50:12.412Z,0.50
2019-01-30T07:53:46.077Z,1.20
2019-01-30T07:57:01.663Z,0.60
2019-01-30T08:07:23.078Z,0.50
2019-01-30T08:10:26.983Z,0.60
2019-01-30T08:13:41.010Z,0.60
2019-01-30T08:16:35.781Z,0.60
2019-01-30T08:19:41.839Z,0.20
2019-01-30T08:22:55.224Z,0.60
2019-01-30T08:26:35.629Z,0.70
2019-01-30T08:29:54.073Z,0.70
2019-01-30T08:36:41.947Z,0.70
2019-01-30T08:40:04.424Z,0.70
2019-01-30T08:42:52.224Z,0.70
2019-01-30T08:46:10.841Z,0.80
2019-01-30T08:49:15.699Z,0.80
2019-01-30T08:52:32.972Z,0.80
2019-01-30T08:55:54.879Z,0.90
2019-01-30T08:58:41.801Z,0.50
2019-01-30T09:02:02.035Z,0.90
2019-01-30T09:05:20.479Z,0.90
2019-01-30T09:11:47.141Z,1.00
2019-01-30T09:15:06.842Z,1.10
2019-01-30T09:22:08.743Z,1.10
2019-01-30T09:25:50.065Z,1.10
2019-01-30T09:29:12.258Z,0.90
2019-01-30T09:32:00.501Z,0.80
2019-01-30T09:38:37.588Z,0.70
2019-01-30T09:42:10.524Z,0.60
2019-01-30T09:45:30.390Z,0.70
2019-01-30T09:48:37.060Z,0.40
2019-01-30T10:03:04.914Z,0.30
2019-01-30T10:06:15.915Z,0.00
2019-01-30T10:09:38.756Z,0.60
2019-01-30T10:12:44.741Z,0.70
2019-01-30T10:15:52.208Z,0.70
2019-01-30T10:19:14.620Z,0.90
2019-01-30T10:22:19.101Z,1.00
2019-01-30T10:25:30.179Z,1.20
2019-01-30T10:28:27.756Z,1.30
2019-01-30T10:31:26.927Z,1.40
2019-01-30T10:34:27.517Z,1.50
2019-01-30T10:37:25.462Z,1.60
2019-01-30T10:40:50.285Z,1.60
2019-01-30T10:45:14.210Z,1.80
2019-01-30T10:47:13.191Z,2.00
2019-01-30T10:50:09.920Z,1.70
2019-01-30T10:53:22.464Z,1.40
2019-01-30T10:56:29.600Z,1.30
2019-01-30T10:59:49.597Z,1.20
2019-01-30T11:06:15.614Z,1.30
2019-01-30T11:12:52.681Z,1.20
2019-01-30T11:16:01.400Z,1.40
2019-01-30T11:16:55.794Z,1.30
2019-01-30T11:19:11.873Z,1.40
2019-01-30T11:22:02.524Z,1.30
2019-01-30T11:25:15.940Z,1.30
2019-01-30T11:28:52.742Z,1.40
2019-01-30T11:32:00.847Z,1.50
2019-01-30T11:34:53.053Z,1.70
2019-01-30T11:38:09.421Z,1.80
2019-01-30T11:41:47.513Z,1.80
2019-01-30T11:45:02.866Z,1.80
2019-01-30T11:48:01.283Z,1.80
2019-01-30T11:51:16.947Z,1.80
2019-01-30T11:54:56.912Z,1.80
2019-01-30T12:01:37.102Z,1.90
2019-01-30T12:04:44.393Z,1.90
2019-01-30T12:07:51.116Z,1.90
2019-01-30T12:14:27.910Z,2.00
2019-01-30T12:18:01.156Z,2.10
2019-01-30T12:21:03.468Z,1.80
2019-01-30T12:24:06.401Z,1.80
2019-01-30T12:27:44.402Z,1.80
2019-01-30T12:31:06.908Z,1.90
2019-01-30T12:34:39.204Z,2.00
2019-01-30T12:38:41.825Z,2.00
2019-01-30T12:42:03.493Z,2.00
2019-01-30T12:45:37.270Z,1.90
2019-01-30T12:48:41.344Z,1.80
2019-01-30T12:52:26.267Z,1.80
2019-01-30T12:55:40.643Z,1.70
2019-01-30T12:58:43.636Z,1.70
2019-01-30T13:02:17.538Z,1.70
2019-01-30T13:05:36.814Z,1.60
2019-01-30T13:09:00.746Z,1.70
2019-01-30T13:20:28.883Z,1.80
2019-01-30T13:24:22.871Z,1.80
2019-01-30T13:34:24.462Z,1.80
2019-01-30T13:38:21.481Z,1.80
2019-01-30T13:41:40.127Z,1.80
2019-01-30T13:45:17.505Z,2.10
2019-01-30T13:48:37.383Z,1.70
2019-01-30T13:51:35.023Z,1.70
2019-01-30T13:55:07.273Z,1.70
2019-01-30T13:58:42.655Z,2.00
2019-01-30T14:02:14.537Z,1.70
2019-01-30T14:05:28.977Z,1.70
2019-01-30T14:13:00.019Z,1.80
2019-01-30T14:16:43.665Z,1.80
2019-01-30T14:20:27.780Z,1.80
2019-01-30T14:24:12.139Z,1.80
2019-01-30T14:27:29.383Z,1.80
2019-01-30T14:30:41.540Z,1.80
2019-01-30T14:34:48.210Z,1.80
2019-01-30T14:38:30.092Z,1.80
2019-01-30T14:48:38.146Z,1.80
2019-01-30T14:51:31.383Z,1.80
2019-01-30T14:55:16.638Z,1.80
2019-01-30T15:18:03.921Z,1.70
2019-01-30T15:21:49.498Z,1.70
2019-01-30T15:25:21.986Z,1.70
2019-01-30T15:36:55.895Z,1.70
2019-01-30T15:40:16.150Z,1.80
2019-01-30T15:43:25.761Z,1.70
2019-01-30T15:46:39.840Z,1.70
2019-01-30T15:53:57.760Z,1.70
2019-01-30T15:57:08.769Z,1.70
2019-01-30T16:00:14.795Z,1.70
2019-01-30T16:04:06.565Z,1.80
2019-01-30T16:10:49.614Z,1.70
2019-01-30T16:14:07.000Z,1.70
2019-01-30T16:17:38.419Z,1.70
2019-01-30T16:24:27.998Z,1.70
2019-01-30T16:27:36.209Z,1.70
2019-01-30T16:31:25.029Z,1.70
2019-01-30T16:35:05.575Z,1.80
2019-01-30T16:38:31.070Z,1.70
2019-01-30T16:42:06.323Z,1.70
2019-01-30T16:45:17.663Z,1.70
2019-01-30T16:52:03.914Z,1.70
2019-01-30T16:59:18.552Z,1.60
2019-01-30T17:05:11.625Z,1.60
2019-01-30T17:16:09.279Z,1.60
2019-01-30T17:23:10.276Z,1.60
2019-01-30T17:30:02.081Z,1.60
2019-01-30T17:33:35.712Z,1.60
2019-01-30T17:44:41.578Z,1.60
2019-01-30T17:56:11.018Z,1.50
2019-01-30T17:59:53.434Z,1.60
2019-01-30T18:03:02.638Z,1.70
2019-01-30T18:05:55.495Z,1.70
2019-01-30T18:09:01.646Z,1.70
2019-01-30T18:15:28.141Z,1.70
2019-01-30T18:22:19.925Z,1.30
2019-01-30T18:28:47.892Z,1.60
2019-01-30T19:05:40.265Z,1.70
2019-01-30T19:19:36.445Z,1.70
2019-01-30T19:27:55.935Z,2.10
2019-01-30T19:31:18.683Z,2.00
2019-01-30T19:34:31.976Z,1.90
2019-01-30T19:38:14.443Z,1.90
2019-01-30T19:42:30.192Z,1.80
2019-01-30T19:45:44.290Z,1.80
2019-01-30T20:07:58.026Z,1.60
2019-01-30T20:12:15.821Z,1.70
2019-01-30T20:16:27.738Z,1.70
2019-01-30T20:19:32.593Z,1.70
2019-01-30T20:23:12.861Z,1.70
2019-01-30T20:38:37.457Z,1.70
2019-01-30T20:46:28.412Z,1.80
2019-01-30T20:49:40.098Z,1.70
2019-01-30T20:52:57.957Z,1.70
2019-01-30T20:55:53.878Z,1.70
2019-01-30T21:02:43.708Z,1.90
2019-01-30T21:06:47.082Z,1.70
2019-01-30T21:08:36.193Z,1.80
2019-01-30T21:11:54.486Z,1.70
2019-01-30T21:15:02.329Z,1.80
2019-01-30T21:18:06.008Z,1.80
2019-01-30T21:21:24.937Z,1.70
2019-01-30T21:24:43.362Z,1.70
2019-01-30T21:27:46.716Z,1.70
2019-01-30T21:31:27.597Z,1.60
2019-01-30T21:34:34.932Z,1.70
2019-01-30T21:37:48.626Z,1.60
2019-01-30T21:40:46.247Z,1.60
2019-01-30T21:43:24.675Z,1.70
2019-01-30T21:46:19.224Z,1.70
2019-01-30T21:49:47.774Z,1.70
2019-01-30T21:53:34.052Z,2.60
2019-01-30T21:55:52.455Z,2.70
2019-01-30T22:02:36.369Z,2.10
2019-01-30T22:05:43.195Z,2.00
2019-01-30T22:09:14.920Z,1.90
2019-01-30T22:19:54.551Z,1.90
2019-01-30T22:26:36.954Z,1.90
2019-01-30T22:30:11.996Z,1.80
2019-01-30T22:33:47.327Z,2.40
2019-01-30T22:37:00.880Z,1.90
2019-01-30T22:40:17.504Z,1.90
2019-01-30T22:43:35.491Z,1.90
2019-01-30T22:46:40.169Z,1.80
2019-01-30T22:49:54.567Z,1.80
2019-01-30T22:53:05.322Z,1.70
2019-01-30T22:56:35.069Z,1.80
2019-01-30T22:59:49.072Z,1.70
2019-01-30T23:06:45.752Z,1.70
2019-01-30T23:09:58.656Z,1.70
2019-01-30T23:13:23.424Z,1.60
2019-01-30T23:16:35.784Z,1.50
2019-01-30T23:19:53.533Z,1.50
2019-01-30T23:23:27.137Z,1.40
2019-01-30T23:26:57.808Z,1.40
2019-01-30T23:30:40.881Z,1.30
2019-01-30T23:33:50.786Z,1.30
2019-01-30T23:37:46.191Z,1.30
2019-01-30T23:45:18.085Z,1.20
2019-01-30T23:48:42.753Z,1.20
2019-01-30T23:52:29.374Z,1.10
2019-01-30T23:55:54.917Z,1.10
